sensor_id;sensor_type;location;lat;lon;timestamp;pressure;altitude;pressure_sealevel;temperature;humidity
70833;BME280;71099;59.528;17.886;2023-07-20T00:00:26;99717.66;;;14.56;68.69
70833;BME280;71099;59.528;17.886;2023-07-20T00:02:51;99716.44;;;14.52;69.18
70833;BME280;71099;59.528;17.886;2023-07-20T00:05:17;99711.66;;;14.55;69.06
70833;BME280;71099;59.528;17.886;2023-07-20T00:07:50;99717.66;;;14.56;69.32
70833;BME280;71099;59.528;17.886;2023-07-20T00:10:17;99721.81;;;14.50;69.69
70833;BME280;71099;59.528;17.886;2023-07-20T00:12:43;99722.00;;;14.49;69.75
70833;BME280;71099;59.528;17.886;2023-07-20T00:15:12;99717.88;;;14.33;70.13
70833;BME280;71099;59.528;17.886;2023-07-20T00:17:38;99718.69;;;14.34;70.88
70833;BME280;71099;59.528;17.886;2023-07-20T00:20:06;99714.34;;;14.34;71.36
70833;BME280;71099;59.528;17.886;2023-07-20T00:22:31;99714.97;;;14.43;71.90
70833;BME280;71099;59.528;17.886;2023-07-20T00:24:57;99709.34;;;14.39;72.45
70833;BME280;71099;59.528;17.886;2023-07-20T00:27:22;99711.94;;;14.39;72.26
70833;BME280;71099;59.528;17.886;2023-07-20T00:29:47;99718.06;;;14.32;73.12
70833;BME280;71099;59.528;17.886;2023-07-20T00:32:13;99718.88;;;14.32;72.82
70833;BME280;71099;59.528;17.886;2023-07-20T00:34:38;99718.34;;;14.37;73.13
70833;BME280;71099;59.528;17.886;2023-07-20T00:37:04;99713.09;;;14.30;73.09
70833;BME280;71099;59.528;17.886;2023-07-20T00:39:29;99712.66;;;14.27;73.24
70833;BME280;71099;59.528;17.886;2023-07-20T00:41:54;99719.22;;;14.23;74.13
70833;BME280;71099;59.528;17.886;2023-07-20T00:44:20;99718.84;;;14.26;73.76
70833;BME280;71099;59.528;17.886;2023-07-20T00:46:46;99713.81;;;14.24;73.70
70833;BME280;71099;59.528;17.886;2023-07-20T00:49:12;99713.81;;;14.24;74.21
70833;BME280;71099;59.528;17.886;2023-07-20T00:51:37;99718.28;;;14.30;73.53
70833;BME280;71099;59.528;17.886;2023-07-20T00:54:03;99712.69;;;14.33;73.78
70833;BME280;71099;59.528;17.886;2023-07-20T00:56:29;99720.72;;;14.38;73.91
70833;BME280;71099;59.528;17.886;2023-07-20T00:58:55;99722.97;;;14.41;73.82
70833;BME280;71099;59.528;17.886;2023-07-20T01:01:21;99725.31;;;14.36;73.82
70833;BME280;71099;59.528;17.886;2023-07-20T01:03:48;99716.94;;;14.34;73.97
70833;BME280;71099;59.528;17.886;2023-07-20T01:14:43;99716.00;;;14.48;73.90
70833;BME280;71099;59.528;17.886;2023-07-20T01:17:08;99722.13;;;14.34;73.94
70833;BME280;71099;59.528;17.886;2023-07-20T01:19:34;99720.38;;;14.41;73.75
70833;BME280;71099;59.528;17.886;2023-07-20T01:30:45;99718.66;;;14.27;74.35
70833;BME280;71099;59.528;17.886;2023-07-20T01:33:15;99717.03;;;14.26;74.56
70833;BME280;71099;59.528;17.886;2023-07-20T01:35:43;99711.84;;;14.26;74.17
70833;BME280;71099;59.528;17.886;2023-07-20T01:38:12;99716.47;;;14.31;74.56
70833;BME280;71099;59.528;17.886;2023-07-20T01:40:39;99717.44;;;14.23;74.66
70833;BME280;71099;59.528;17.886;2023-07-20T01:43:05;99705.06;;;14.25;74.63
70833;BME280;71099;59.528;17.886;2023-07-20T01:45:30;99706.28;;;14.29;74.58
70833;BME280;71099;59.528;17.886;2023-07-20T01:47:56;99706.66;;;14.26;74.70
70833;BME280;71099;59.528;17.886;2023-07-20T01:50:22;99704.50;;;14.30;74.94
70833;BME280;71099;59.528;17.886;2023-07-20T01:52:47;99705.69;;;14.27;74.78
70833;BME280;71099;59.528;17.886;2023-07-20T01:55:13;99702.28;;;14.27;74.74
70833;BME280;71099;59.528;17.886;2023-07-20T01:57:38;99696.66;;;14.23;74.95
70833;BME280;71099;59.528;17.886;2023-07-20T02:00:04;99693.69;;;14.26;74.96
70833;BME280;71099;59.528;17.886;2023-07-20T02:02:30;99698.75;;;14.34;74.82
70833;BME280;71099;59.528;17.886;2023-07-20T02:04:55;99690.69;;;14.29;74.32
70833;BME280;71099;59.528;17.886;2023-07-20T02:07:21;99692.09;;;14.32;74.46
70833;BME280;71099;59.528;17.886;2023-07-20T02:09:46;99702.84;;;14.22;74.97
70833;BME280;71099;59.528;17.886;2023-07-20T02:12:12;99697.78;;;14.14;75.19
70833;BME280;71099;59.528;17.886;2023-07-20T02:14:37;99695.03;;;14.15;74.88
70833;BME280;71099;59.528;17.886;2023-07-20T02:17:04;99686.50;;;13.94;76.14
70833;BME280;71099;59.528;17.886;2023-07-20T02:19:30;99689.00;;;13.87;76.45
70833;BME280;71099;59.528;17.886;2023-07-20T02:21:55;99683.91;;;13.94;75.97
70833;BME280;71099;59.528;17.886;2023-07-20T02:24:21;99691.06;;;13.92;76.17
70833;BME280;71099;59.528;17.886;2023-07-20T02:26:46;99688.44;;;13.92;76.24
70833;BME280;71099;59.528;17.886;2023-07-20T02:29:11;99687.47;;;13.93;76.23
70833;BME280;71099;59.528;17.886;2023-07-20T02:31:37;99689.09;;;13.94;76.50
70833;BME280;71099;59.528;17.886;2023-07-20T02:34:07;99682.88;;;13.95;76.47
70833;BME280;71099;59.528;17.886;2023-07-20T02:36:34;99690.06;;;13.93;76.22
70833;BME280;71099;59.528;17.886;2023-07-20T02:38:59;99687.47;;;13.93;76.66
70833;BME280;71099;59.528;17.886;2023-07-20T02:41:27;99689.22;;;13.86;77.24
70833;BME280;71099;59.528;17.886;2023-07-20T02:43:52;99687.19;;;13.81;77.15
70833;BME280;71099;59.528;17.886;2023-07-20T02:46:17;99682.16;;;13.80;77.25
70833;BME280;71099;59.528;17.886;2023-07-20T02:48:43;99687.19;;;13.81;77.30
70833;BME280;71099;59.528;17.886;2023-07-20T02:51:08;99688.16;;;13.80;77.17
70833;BME280;71099;59.528;17.886;2023-07-20T02:53:34;99685.41;;;13.82;77.44
70833;BME280;71099;59.528;17.886;2023-07-20T02:56:00;99687.97;;;13.82;77.40
70833;BME280;71099;59.528;17.886;2023-07-20T02:58:25;99685.78;;;13.79;77.42
70833;BME280;71099;59.528;17.886;2023-07-20T03:00:50;99689.34;;;13.78;77.58
70833;BME280;71099;59.528;17.886;2023-07-20T03:03:16;99690.97;;;13.79;77.71
70833;BME280;71099;59.528;17.886;2023-07-20T03:05:42;99680.72;;;13.70;78.01
70833;BME280;71099;59.528;17.886;2023-07-20T03:08:07;99694.66;;;13.69;78.43
70833;BME280;71099;59.528;17.886;2023-07-20T03:10:40;99691.69;;;13.73;78.30
70833;BME280;71099;59.528;17.886;2023-07-20T03:13:06;99682.69;;;13.68;78.20
70833;BME280;71099;59.528;17.886;2023-07-20T03:15:32;99693.31;;;13.74;78.34
70833;BME280;71099;59.528;17.886;2023-07-20T03:17:57;99692.31;;;13.75;78.17
70833;BME280;71099;59.528;17.886;2023-07-20T03:20:24;99692.06;;;13.69;78.72
70833;BME280;71099;59.528;17.886;2023-07-20T03:22:49;99690.72;;;13.74;78.75
70833;BME280;71099;59.528;17.886;2023-07-20T03:25:15;99685.09;;;13.70;78.58
70833;BME280;71099;59.528;17.886;2023-07-20T03:27:40;99686.16;;;13.76;78.73
70833;BME280;71099;59.528;17.886;2023-07-20T03:30:06;99678.72;;;13.73;78.78
70833;BME280;71099;59.528;17.886;2023-07-20T03:32:32;99687.84;;;13.68;78.78
70833;BME280;71099;59.528;17.886;2023-07-20T03:34:58;99684.91;;;13.72;79.29
70833;BME280;71099;59.528;17.886;2023-07-20T03:37:23;99681.69;;;13.69;78.99
70833;BME280;71099;59.528;17.886;2023-07-20T03:39:49;99681.13;;;13.74;78.90
70833;BME280;71099;59.528;17.886;2023-07-20T03:42:14;99690.31;;;13.77;78.97
70833;BME280;71099;59.528;17.886;2023-07-20T03:44:39;99689.53;;;13.76;79.15
70833;BME280;71099;59.528;17.886;2023-07-20T03:47:05;99688.75;;;13.76;79.38
70833;BME280;71099;59.528;17.886;2023-07-20T03:49:31;99703.28;;;13.77;79.43
70833;BME280;71099;59.528;17.886;2023-07-20T03:51:57;99694.72;;;13.76;79.68
70833;BME280;71099;59.528;17.886;2023-07-20T03:54:22;99702.13;;;13.79;79.49
70833;BME280;71099;59.528;17.886;2023-07-20T03:56:48;99700.47;;;13.72;79.54
70833;BME280;71099;59.528;17.886;2023-07-20T03:59:13;99695.50;;;13.77;79.32
70833;BME280;71099;59.528;17.886;2023-07-20T04:01:39;99702.50;;;13.76;79.44
70833;BME280;71099;59.528;17.886;2023-07-20T04:04:07;99707.63;;;13.69;79.81
70833;BME280;71099;59.528;17.886;2023-07-20T04:06:33;99696.28;;;13.70;79.83
70833;BME280;71099;59.528;17.886;2023-07-20T04:08:59;99701.06;;;13.74;79.81
70833;BME280;71099;59.528;17.886;2023-07-20T04:11:24;99698.09;;;13.77;79.54
70833;BME280;71099;59.528;17.886;2023-07-20T04:13:49;99700.81;;;13.68;80.13
70833;BME280;71099;59.528;17.886;2023-07-20T04:16:15;99696.88;;;13.73;79.81
70833;BME280;71099;59.528;17.886;2023-07-20T04:18:40;99702.31;;;13.78;79.94
70833;BME280;71099;59.528;17.886;2023-07-20T04:21:08;99694.66;;;13.69;80.10
70833;BME280;71099;59.528;17.886;2023-07-20T04:23:33;99691.09;;;13.70;80.27
70833;BME280;71099;59.528;17.886;2023-07-20T04:25:58;99698.34;;;13.82;80.20
70833;BME280;71099;59.528;17.886;2023-07-20T04:28:24;99698.41;;;13.88;79.46
70833;BME280;71099;59.528;17.886;2023-07-20T04:30:49;99694.84;;;13.89;79.75
70833;BME280;71099;59.528;17.886;2023-07-20T04:33:18;99694.41;;;13.86;79.92
70833;BME280;71099;59.528;17.886;2023-07-20T04:38:11;99698.34;;;13.82;80.14
70833;BME280;71099;59.528;17.886;2023-07-20T04:40:36;99698.41;;;13.88;80.19
70833;BME280;71099;59.528;17.886;2023-07-20T04:43:01;99698.22;;;13.90;80.26
70833;BME280;71099;59.528;17.886;2023-07-20T04:45:27;99698.22;;;13.90;80.00
70833;BME280;71099;59.528;17.886;2023-07-20T04:47:52;99694.44;;;13.92;79.70
70833;BME280;71099;59.528;17.886;2023-07-20T04:50:18;99701.28;;;14.00;79.33
70833;BME280;71099;59.528;17.886;2023-07-20T04:52:43;99691.91;;;13.99;79.12
70833;BME280;71099;59.528;17.886;2023-07-20T04:55:11;99694.94;;;14.09;79.43
70833;BME280;71099;59.528;17.886;2023-07-20T04:57:36;99693.22;;;14.16;78.85
70833;BME280;71099;59.528;17.886;2023-07-20T05:00:02;99686.22;;;14.16;78.88
70833;BME280;71099;59.528;17.886;2023-07-20T05:02:28;99684.72;;;14.29;78.36
70833;BME280;71099;59.528;17.886;2023-07-20T05:04:54;99684.03;;;14.41;78.13
70833;BME280;71099;59.528;17.886;2023-07-20T05:07:19;99677.09;;;14.55;77.27
70833;BME280;71099;59.528;17.886;2023-07-20T05:09:45;99685.69;;;14.55;76.18
70833;BME280;71099;59.528;17.886;2023-07-20T05:12:10;99683.34;;;14.67;76.25
70833;BME280;71099;59.528;17.886;2023-07-20T05:14:37;99677.38;;;14.80;75.55
70833;BME280;71099;59.528;17.886;2023-07-20T05:17:03;99685.19;;;14.80;75.18
70833;BME280;71099;59.528;17.886;2023-07-20T05:19:28;99684.41;;;14.86;75.81
70833;BME280;71099;59.528;17.886;2023-07-20T05:21:54;99684.28;;;15.00;74.48
70833;BME280;71099;59.528;17.886;2023-07-20T05:24:19;99685.91;;;15.14;74.09
70833;BME280;71099;59.528;17.886;2023-07-20T05:26:45;99687.94;;;15.32;73.81
70833;BME280;71099;59.528;17.886;2023-07-20T05:29:10;99684.34;;;15.40;73.19
70833;BME280;71099;59.528;17.886;2023-07-20T05:31:35;99684.13;;;15.35;73.27
70833;BME280;71099;59.528;17.886;2023-07-20T05:34:01;99692.72;;;15.48;72.71
70833;BME280;71099;59.528;17.886;2023-07-20T05:36:26;99693.53;;;15.42;72.52
70833;BME280;71099;59.528;17.886;2023-07-20T05:38:52;99682.34;;;15.48;72.19
70833;BME280;71099;59.528;17.886;2023-07-20T05:41:17;99679.97;;;15.53;72.06
70833;BME280;71099;59.528;17.886;2023-07-20T05:43:42;99679.78;;;15.55;72.24
70833;BME280;71099;59.528;17.886;2023-07-20T05:46:08;99684.38;;;15.59;72.51
70833;BME280;71099;59.528;17.886;2023-07-20T05:48:34;99679.97;;;15.53;72.02
70833;BME280;71099;59.528;17.886;2023-07-20T05:51:00;99688.41;;;15.55;72.35
70833;BME280;71099;59.528;17.886;2023-07-20T05:53:26;99683.38;;;15.60;72.41
70833;BME280;71099;59.528;17.886;2023-07-20T05:55:55;99675.97;;;15.64;71.65
70833;BME280;71099;59.528;17.886;2023-07-20T05:58:20;99687.38;;;15.83;71.37
70833;BME280;71099;59.528;17.886;2023-07-20T06:00:50;99690.38;;;15.93;70.73
70833;BME280;71099;59.528;17.886;2023-07-20T06:03:16;99686.78;;;15.94;70.33
70833;BME280;71099;59.528;17.886;2023-07-20T06:05:42;99691.16;;;16.13;70.01
70833;BME280;71099;59.528;17.886;2023-07-20T06:08:08;99682.38;;;16.14;70.12
70833;BME280;71099;59.528;17.886;2023-07-20T06:10:33;99687.19;;;16.10;69.89
70833;BME280;71099;59.528;17.886;2023-07-20T06:12:59;99689.75;;;16.24;69.45
70833;BME280;71099;59.528;17.886;2023-07-20T06:15:30;99683.09;;;16.34;68.64
70833;BME280;71099;59.528;17.886;2023-07-20T06:17:56;99683.06;;;16.60;68.07
70833;BME280;71099;59.528;17.886;2023-07-20T06:20:23;99680.66;;;16.66;67.70
70833;BME280;71099;59.528;17.886;2023-07-20T06:22:49;99684.66;;;16.62;67.99
70833;BME280;71099;59.528;17.886;2023-07-20T06:25:15;99682.44;;;16.65;67.85
70833;BME280;71099;59.528;17.886;2023-07-20T06:27:42;99679.84;;;16.65;67.14
70833;BME280;71099;59.528;17.886;2023-07-20T06:30:07;99678.03;;;16.66;67.64
70833;BME280;71099;59.528;17.886;2023-07-20T06:32:33;99674.16;;;16.81;67.33
70833;BME280;71099;59.528;17.886;2023-07-20T06:34:58;99678.50;;;16.94;65.81
70833;BME280;71099;59.528;17.886;2023-07-20T06:37:24;99677.94;;;16.85;66.41
70833;BME280;71099;59.528;17.886;2023-07-20T06:39:49;99676.88;;;16.99;65.56
70833;BME280;71099;59.528;17.886;2023-07-20T06:42:14;99679.09;;;16.96;65.41
70833;BME280;71099;59.528;17.886;2023-07-20T06:44:40;99680.88;;;16.95;65.90
70833;BME280;71099;59.528;17.886;2023-07-20T06:47:05;99671.53;;;17.19;65.23
70833;BME280;71099;59.528;17.886;2023-07-20T06:49:31;99671.44;;;17.32;64.22
70833;BME280;71099;59.528;17.886;2023-07-20T06:51:56;99673.97;;;17.21;64.98
70833;BME280;71099;59.528;17.886;2023-07-20T06:54:22;99670.66;;;17.32;64.34
70833;BME280;71099;59.528;17.886;2023-07-20T06:56:47;99672.75;;;17.48;63.74
70833;BME280;71099;59.528;17.886;2023-07-20T06:59:13;99679.34;;;17.50;63.49
70833;BME280;71099;59.528;17.886;2023-07-20T07:01:38;99670.09;;;17.54;63.67
70833;BME280;71099;59.528;17.886;2023-07-20T07:04:04;99672.13;;;17.52;63.73
70833;BME280;71099;59.528;17.886;2023-07-20T07:06:31;99680.25;;;17.69;63.98
70833;BME280;71099;59.528;17.886;2023-07-20T07:08:56;99679.72;;;17.61;64.43
70833;BME280;71099;59.528;17.886;2023-07-20T07:11:22;99676.00;;;17.75;63.60
70833;BME280;71099;59.528;17.886;2023-07-20T07:13:48;99667.50;;;18.04;63.57
70833;BME280;71099;59.528;17.886;2023-07-20T07:16:16;99676.34;;;18.21;61.94
70833;BME280;71099;59.528;17.886;2023-07-20T07:18:47;99674.81;;;18.14;60.87
70833;BME280;71099;59.528;17.886;2023-07-20T07:21:13;99664.53;;;18.37;60.97
70833;BME280;71099;59.528;17.886;2023-07-20T07:23:39;99665.78;;;18.34;59.90
70833;BME280;71099;59.528;17.886;2023-07-20T07:26:05;99670.09;;;18.04;61.27
70833;BME280;71099;59.528;17.886;2023-07-20T07:28:30;99674.47;;;18.28;60.46
70833;BME280;71099;59.528;17.886;2023-07-20T07:30:57;99669.94;;;18.60;60.27
70833;BME280;71099;59.528;17.886;2023-07-20T07:33:23;99663.94;;;18.89;60.24
70833;BME280;71099;59.528;17.886;2023-07-20T07:35:49;99669.41;;;18.99;58.72
70833;BME280;71099;59.528;17.886;2023-07-20T07:38:15;99661.63;;;19.11;58.20
70833;BME280;71099;59.528;17.886;2023-07-20T07:40:40;99666.84;;;19.11;58.09
70833;BME280;71099;59.528;17.886;2023-07-20T07:43:07;99665.34;;;18.74;58.33
70833;BME280;71099;59.528;17.886;2023-07-20T07:45:35;99672.66;;;18.47;59.14
70833;BME280;71099;59.528;17.886;2023-07-20T07:48:03;99663.56;;;18.49;58.98
70833;BME280;71099;59.528;17.886;2023-07-20T07:50:29;99667.38;;;18.53;59.85
70833;BME280;71099;59.528;17.886;2023-07-20T07:52:55;99664.97;;;18.70;58.31
70833;BME280;71099;59.528;17.886;2023-07-20T07:55:20;99666.78;;;18.70;58.60
70833;BME280;71099;59.528;17.886;2023-07-20T07:57:46;99668.03;;;18.97;57.50
70833;BME280;71099;59.528;17.886;2023-07-20T08:00:13;99659.31;;;19.03;57.37
70833;BME280;71099;59.528;17.886;2023-07-20T08:02:41;99659.31;;;19.03;57.24
70833;BME280;71099;59.528;17.886;2023-07-20T08:05:07;99663.94;;;18.89;57.67
70833;BME280;71099;59.528;17.886;2023-07-20T08:07:33;99668.00;;;18.85;56.82
70833;BME280;71099;59.528;17.886;2023-07-20T08:09:58;99658.59;;;18.66;57.24
70833;BME280;71099;59.528;17.886;2023-07-20T08:12:24;99660.97;;;18.68;56.83
70833;BME280;71099;59.528;17.886;2023-07-20T08:14:51;99668.81;;;18.68;56.56
70833;BME280;71099;59.528;17.886;2023-07-20T08:17:16;99662.50;;;19.05;56.29
70833;BME280;71099;59.528;17.886;2023-07-20T08:19:43;99667.72;;;19.05;56.46
70833;BME280;71099;59.528;17.886;2023-07-20T08:22:09;99664.78;;;19.13;56.42
70833;BME280;71099;59.528;17.886;2023-07-20T08:24:35;99670.03;;;19.43;56.29
70833;BME280;71099;59.528;17.886;2023-07-20T08:27:00;99648.88;;;19.44;55.02
70833;BME280;71099;59.528;17.886;2023-07-20T08:29:25;99658.50;;;19.02;55.06
70833;BME280;71099;59.528;17.886;2023-07-20T08:31:51;99667.81;;;19.28;55.20
70833;BME280;71099;59.528;17.886;2023-07-20T08:34:16;99665.69;;;19.48;55.13
70833;BME280;71099;59.528;17.886;2023-07-20T08:36:42;99667.88;;;19.75;54.16
70833;BME280;71099;59.528;17.886;2023-07-20T08:39:07;99665.28;;;19.86;53.01
70833;BME280;71099;59.528;17.886;2023-07-20T08:41:34;99653.78;;;19.76;53.00
70833;BME280;71099;59.528;17.886;2023-07-20T08:44:00;99657.44;;;19.98;52.88
70833;BME280;71099;59.528;17.886;2023-07-20T08:46:27;99648.28;;;20.12;51.99
70833;BME280;71099;59.528;17.886;2023-07-20T08:48:54;99663.81;;;20.02;51.57
70833;BME280;71099;59.528;17.886;2023-07-20T08:51:21;99652.72;;;20.12;51.53
70833;BME280;71099;59.528;17.886;2023-07-20T08:53:47;99657.41;;;20.21;51.95
70833;BME280;71099;59.528;17.886;2023-07-20T08:56:16;99654.66;;;20.39;50.99
70833;BME280;71099;59.528;17.886;2023-07-20T08:58:43;99650.22;;;20.80;50.07
70833;BME280;71099;59.528;17.886;2023-07-20T09:01:10;99648.88;;;21.22;49.54
70833;BME280;71099;59.528;17.886;2023-07-20T09:03:36;99656.06;;;21.27;49.10
70833;BME280;71099;59.528;17.886;2023-07-20T09:06:05;99650.72;;;21.38;47.82
70833;BME280;71099;59.528;17.886;2023-07-20T09:08:31;99659.13;;;20.95;48.74
70833;BME280;71099;59.528;17.886;2023-07-20T09:10:57;99673.22;;;21.06;48.74
70833;BME280;71099;59.528;17.886;2023-07-20T09:13:25;99659.63;;;20.53;48.51
70833;BME280;71099;59.528;17.886;2023-07-20T09:15:53;99657.13;;;20.58;49.37
70833;BME280;71099;59.528;17.886;2023-07-20T09:18:27;99661.16;;;20.77;48.78
70833;BME280;71099;59.528;17.886;2023-07-20T09:20:57;99646.47;;;21.21;48.12
70833;BME280;71099;59.528;17.886;2023-07-20T09:23:35;99652.72;;;21.31;47.76
70833;BME280;71099;59.528;17.886;2023-07-20T09:26:09;99652.69;;;21.81;46.94
70833;BME280;71099;59.528;17.886;2023-07-20T09:28:55;99658.56;;;22.05;46.58
70833;BME280;71099;59.528;17.886;2023-07-20T09:31:22;99653.16;;;22.33;45.87
70833;BME280;71099;59.528;17.886;2023-07-20T09:33:48;99652.41;;;22.16;44.85
70833;BME280;71099;59.528;17.886;2023-07-20T09:36:14;99657.94;;;21.81;45.42
70833;BME280;71099;59.528;17.886;2023-07-20T09:38:41;99655.63;;;21.85;45.95
70833;BME280;71099;59.528;17.886;2023-07-20T09:41:07;99664.81;;;21.49;46.68
70833;BME280;71099;59.528;17.886;2023-07-20T09:43:34;99662.09;;;21.44;47.30
70833;BME280;71099;59.528;17.886;2023-07-20T09:46:00;99668.91;;;21.28;47.26
70833;BME280;71099;59.528;17.886;2023-07-20T09:48:26;99667.44;;;21.04;48.18
70833;BME280;71099;59.528;17.886;2023-07-20T09:50:52;99672.34;;;21.12;47.91
70833;BME280;71099;59.528;17.886;2023-07-20T09:53:19;99673.69;;;21.15;47.08
70833;BME280;71099;59.528;17.886;2023-07-20T09:55:46;99666.94;;;20.51;48.58
70833;BME280;71099;59.528;17.886;2023-07-20T09:58:13;99664.00;;;20.47;49.05
70833;BME280;71099;59.528;17.886;2023-07-20T10:00:40;99665.22;;;20.56;49.69
70833;BME280;71099;59.528;17.886;2023-07-20T10:03:06;99666.28;;;20.43;49.59
70833;BME280;71099;59.528;17.886;2023-07-20T10:05:39;99665.81;;;20.23;50.08
70833;BME280;71099;59.528;17.886;2023-07-20T10:08:10;99661.13;;;20.25;50.55
70833;BME280;71099;59.528;17.886;2023-07-20T10:10:37;99673.00;;;20.16;51.05
70833;BME280;71099;59.528;17.886;2023-07-20T10:13:04;99664.47;;;20.09;51.00
70833;BME280;71099;59.528;17.886;2023-07-20T10:15:40;99654.47;;;20.06;48.95
70833;BME280;71099;59.528;17.886;2023-07-20T10:18:30;99659.34;;;20.14;47.98
70833;BME280;71099;59.528;17.886;2023-07-20T10:20:56;99664.00;;;19.89;49.16
70833;BME280;71099;59.528;17.886;2023-07-20T10:23:26;99655.59;;;20.10;48.51
70833;BME280;71099;59.528;17.886;2023-07-20T10:25:54;99651.50;;;20.14;48.93
70833;BME280;71099;59.528;17.886;2023-07-20T10:28:21;99646.94;;;19.98;49.16
70833;BME280;71099;59.528;17.886;2023-07-20T10:30:48;99637.16;;;20.28;49.69
70833;BME280;71099;59.528;17.886;2023-07-20T10:33:15;99641.59;;;20.28;48.11
70833;BME280;71099;59.528;17.886;2023-07-20T10:35:53;99636.22;;;20.63;48.57
70833;BME280;71099;59.528;17.886;2023-07-20T10:38:19;99623.88;;;20.75;47.57
70833;BME280;71099;59.528;17.886;2023-07-20T10:40:54;99629.03;;;20.98;47.06
70833;BME280;71099;59.528;17.886;2023-07-20T10:43:20;99634.00;;;21.11;46.88
70833;BME280;71099;59.528;17.886;2023-07-20T10:45:49;99629.50;;;21.23;46.79
70833;BME280;71099;59.528;17.886;2023-07-20T10:48:19;99627.09;;;21.38;45.79
70833;BME280;71099;59.528;17.886;2023-07-20T10:50:48;99618.63;;;21.70;45.71
70833;BME280;71099;59.528;17.886;2023-07-20T10:53:31;99626.97;;;22.00;45.86
70833;BME280;71099;59.528;17.886;2023-07-20T10:58:33;99630.09;;;21.97;43.48
70833;BME280;71099;59.528;17.886;2023-07-20T11:01:03;99628.72;;;21.95;43.33
70833;BME280;71099;59.528;17.886;2023-07-20T11:03:33;99630.34;;;21.79;43.84
70833;BME280;71099;59.528;17.886;2023-07-20T11:05:59;99623.31;;;21.84;44.05
70833;BME280;71099;59.528;17.886;2023-07-20T11:08:44;99620.25;;;21.71;44.35
70833;BME280;71099;59.528;17.886;2023-07-20T11:11:34;99634.19;;;21.10;44.08
70833;BME280;71099;59.528;17.886;2023-07-20T11:16:47;99630.81;;;20.81;45.16
70833;BME280;71099;59.528;17.886;2023-07-20T11:19:18;99629.13;;;20.75;43.42
70833;BME280;71099;59.528;17.886;2023-07-20T11:21:46;99639.56;;;20.86;43.23
70833;BME280;71099;59.528;17.886;2023-07-20T11:24:12;99630.22;;;21.07;44.13
70833;BME280;71099;59.528;17.886;2023-07-20T11:29:11;99622.16;;;21.59;42.56
70833;BME280;71099;59.528;17.886;2023-07-20T11:31:41;99622.88;;;21.71;40.88
70833;BME280;71099;59.528;17.886;2023-07-20T11:34:12;99627.63;;;21.74;41.60
70833;BME280;71099;59.528;17.886;2023-07-20T11:36:41;99625.59;;;22.14;41.25
70833;BME280;71099;59.528;17.886;2023-07-20T11:39:12;99627.78;;;22.22;39.14
70833;BME280;71099;59.528;17.886;2023-07-20T11:41:38;99629.22;;;21.75;40.24
70833;BME280;71099;59.528;17.886;2023-07-20T11:44:05;99638.72;;;21.42;41.30
70833;BME280;71099;59.528;17.886;2023-07-20T11:46:33;99635.75;;;21.22;41.87
70833;BME280;71099;59.528;17.886;2023-07-20T11:48:59;99641.56;;;21.24;42.05
70833;BME280;71099;59.528;17.886;2023-07-20T11:51:28;99643.72;;;21.44;42.88
70833;BME280;71099;59.528;17.886;2023-07-20T11:53:54;99638.84;;;21.36;41.85
70833;BME280;71099;59.528;17.886;2023-07-20T11:56:20;99626.47;;;21.31;42.37
70833;BME280;71099;59.528;17.886;2023-07-20T11:58:46;99631.06;;;21.74;43.12
70833;BME280;71099;59.528;17.886;2023-07-20T12:01:15;99635.34;;;21.97;42.37
70833;BME280;71099;59.528;17.886;2023-07-20T12:03:42;99636.75;;;21.88;40.71
70833;BME280;71099;59.528;17.886;2023-07-20T12:06:10;99636.94;;;21.81;41.41
70833;BME280;71099;59.528;17.886;2023-07-20T12:08:40;99634.00;;;21.61;39.95
70833;BME280;71099;59.528;17.886;2023-07-20T12:11:07;99632.81;;;21.35;40.42
70833;BME280;71099;59.528;17.886;2023-07-20T12:13:43;99633.63;;;21.53;41.05
70833;BME280;71099;59.528;17.886;2023-07-20T12:16:13;99633.78;;;21.63;42.00
70833;BME280;71099;59.528;17.886;2023-07-20T12:18:40;99633.28;;;21.82;41.70
70833;BME280;71099;59.528;17.886;2023-07-20T12:21:06;99636.91;;;21.98;41.47
70833;BME280;71099;59.528;17.886;2023-07-20T12:23:39;99638.53;;;21.99;41.71
70833;BME280;71099;59.528;17.886;2023-07-20T12:26:14;99652.56;;;21.71;41.61
70833;BME280;71099;59.528;17.886;2023-07-20T12:28:40;99634.03;;;21.44;42.22
70833;BME280;71099;59.528;17.886;2023-07-20T12:31:07;99639.81;;;21.30;42.47
70833;BME280;71099;59.528;17.886;2023-07-20T12:33:33;99644.75;;;21.26;43.22
70833;BME280;71099;59.528;17.886;2023-07-20T12:36:00;99639.66;;;21.36;43.83
70833;BME280;71099;59.528;17.886;2023-07-20T12:38:25;99646.19;;;21.51;43.82
70833;BME280;71099;59.528;17.886;2023-07-20T12:40:53;99637.84;;;21.54;43.31
70833;BME280;71099;59.528;17.886;2023-07-20T12:43:20;99626.78;;;21.52;44.56
70833;BME280;71099;59.528;17.886;2023-07-20T12:45:46;99627.72;;;21.62;44.08
70833;BME280;71099;59.528;17.886;2023-07-20T12:48:11;99630.44;;;21.51;44.00
70833;BME280;71099;59.528;17.886;2023-07-20T12:50:37;99630.75;;;21.71;44.02
70833;BME280;71099;59.528;17.886;2023-07-20T12:53:02;99633.84;;;22.01;43.74
70833;BME280;71099;59.528;17.886;2023-07-20T12:55:29;99628.75;;;22.16;42.70
70833;BME280;71099;59.528;17.886;2023-07-20T12:57:54;99622.16;;;22.35;42.45
70833;BME280;71099;59.528;17.886;2023-07-20T13:00:20;99627.34;;;22.52;43.29
70833;BME280;71099;59.528;17.886;2023-07-20T13:02:47;99633.78;;;22.39;41.90
70833;BME280;71099;59.528;17.886;2023-07-20T13:05:12;99629.72;;;22.54;42.73
70833;BME280;71099;59.528;17.886;2023-07-20T13:07:39;99627.16;;;22.59;43.13
70833;BME280;71099;59.528;17.886;2023-07-20T13:10:05;99624.75;;;22.57;41.91
70833;BME280;71099;59.528;17.886;2023-07-20T13:12:33;99628.91;;;22.53;42.69
70833;BME280;71099;59.528;17.886;2023-07-20T13:15:04;99626.06;;;22.55;41.42